• Join FlightAware (Why Join?)
  • Login
  • US Flag 
11:35AM EDT


 

Airport Tracker/Info


-or-


 

Live Flight TrackerFlight Track Log ✈ AWE3374 ✈ 01-May-2013 ✈ KDCA - KMHT

Flight Track Log - Related Links

Times and Time Zones

All times are in EDT time to prevent confusion due to time zone crossing. See the AWE3374 flight status page for this flight to view local times or setup timezone preferences in your user account.

Time Position Orientation Groundspeed Altitude Reporting Facility
EDT Latitude Longitude Course Direction KTS MPH feet Rate Location/Type
03:09PM 38.8833 -77.0667 38° Northeast 168 193 2,100  Level Potomac TRACON
03:10PM 38.9333 -77.1333 314° West 257 296 4,800 2,820 Climbing Potomac TRACON
03:11PM 39.0148 -76.5704 57° Northeast  Level FlightAware Approximate
03:11PM 39.0000 -77.1500 349° North 289 333 7,800  Level Potomac TRACON
03:12PM 39.0588 -76.4529 63° Northeast  Level FlightAware Approximate
03:12PM 39.0167 -77.0667 76° East 276 318 10,800  Level Potomac TRACON
03:13PM 39.1074 -76.3383 61° Northeast  Level FlightAware Approximate
03:14PM 39.1434 -76.2233 38° Northeast  Level FlightAware Approximate
03:14PM 39.0506 -76.8478 79° East 317 365 15,600  Level Washington Center
03:15PM 39.0706 -76.7253 78° East 329 379 17,200 1,440 Climbing Washington Center
03:16PM 39.0928 -76.5864 78° East 361 415 18,600 1,620 Climbing Washington Center
03:17PM 39.1144 -76.4475 79° East 383 441 20,500 1,680 Climbing Washington Center
03:18PM 39.1386 -76.2953 78° East 407 468 22,000 1,260 Climbing Washington Center
03:19PM 39.1664 -76.1269 78° East 425 489 23,000 480 Climbing Washington Center
03:20PM 39.1817 -75.9744 83° East 432 497 23,000  Level Washington Center
03:21PM 39.2278 -75.8328 67° East 420 483 23,000 360 Level Washington Center
03:22PM 39.3114 -75.7283 44° Northeast 408 470 23,800 1,080 Climbing Washington Center
03:23PM 39.4031 -75.6264 41° Northeast 415 478 25,300 1,440 Climbing Washington Center
03:24PM 39.5011 -75.5378 35° Northeast 415 478 26,700 2,400 Climbing Washington Center
03:25PM 39.5925 -75.4569 34° Northeast 415 478 30,100 2,520 Climbing Washington Center
03:26PM 39.6633 -75.3569 47° Northeast 392 451 31,800 1,620 Climbing Washington Center
03:26PM 39.6947 -75.3114 48° Northeast 380 437 32,400 780 Climbing New York Center
03:27PM 39.7592 -75.2078 51° Northeast 387 445 33,000 300 Climbing New York Center
03:28PM 39.8236 -75.0983 53° Northeast 382 440 33,000  Level New York Center
03:29PM 39.8900 -74.9914 51° Northeast 382 440 33,000  Level New York Center
03:30PM 39.9561 -74.8897 50° Northeast 371 427 33,000  Level New York Center
03:31PM 40.0136 -74.7983 51° Northeast 364 419 33,000  Level New York Center
03:32PM 40.0842 -74.6831 51° Northeast 364 419 33,000  Level New York Center
03:33PM 40.1436 -74.5886 51° Northeast 370 426 33,000  Level New York Center
03:34PM 40.2222 -74.4761 48° Northeast 370 426 33,000  Level New York Center
03:35PM 40.2914 -74.3981 41° Northeast 365 420 33,000  Level New York Center
03:36PM 40.3731 -74.3125 39° Northeast 365 420 33,000  Level New York Center
03:37PM 40.4506 -74.2292 39° Northeast 365 420 33,000  Level New York Center
03:38PM 40.5322 -74.1433 39° Northeast 365 420 33,000  Level New York Center
03:40PM 40.7481 -74.1031 North 344 396 33,000  Level Boston Center
03:41PM 40.8483 -74.0892 North 361 415 33,000  Level Boston Center
03:42PM 40.9569 -74.0725 North 361 415 33,000  Level Boston Center
03:43PM 41.0592 -74.0586 North 361 415 33,000  Level Boston Center
03:44PM 41.1572 -74.0419 North 361 415 33,000  Level Boston Center
03:45PM 41.2575 -74.0278 North 361 415 33,000  Level Boston Center
03:46PM 41.3619 -74.0139 North 361 415 33,000  Level Boston Center
03:47PM 41.4603 -73.9967 North 367 422 33,000  Level Boston Center
03:48PM 41.5603 -73.9825 North 367 422 33,000 -240 Level Boston Center
03:49PM 41.6586 -73.9628 North 367 422 32,600 -660 Descending Boston Center
03:50PM 41.7369 -73.8783 39° Northeast 343 395 31,700 -840 Descending Boston Center
03:51PM 41.7922 -73.7933 49° Northeast 357 411 31,000 -1,020 Descending Boston Center
03:52PM 41.8642 -73.6861 48° Northeast 351 404 29,700 -1,320 Descending Boston Center
03:53PM 41.9361 -73.5814 47° Northeast 363 418 28,400 -1,320 Descending Boston Center
03:54PM 42.0081 -73.4767 47° Northeast 369 425 27,100 -1,260 Descending Boston Center
03:56PM 42.0861 -73.3578 48° Northeast 381 438 25,700 -1,320 Descending Boston Center
03:57PM 42.1578 -73.2522 47° Northeast 365 420 24,300 -1,320 Descending Boston Center
03:58PM 42.2253 -73.1550 47° Northeast 359 413 23,100 -1,140 Descending Boston Center
03:59PM 42.2778 -73.0742 49° Northeast 359 413 22,100 -1,320 Descending Boston Center
04:00PM 42.3639 -72.9403 49° Northeast 360 414 20,500 -1,440 Descending Boston Center
04:01PM 42.4289 -72.8481 46° Northeast 354 407 19,300 -780 Descending Boston Center
04:02PM 42.4917 -72.7525 48° Northeast 332 382 19,000 -720 Descending Boston Center
04:03PM 42.5544 -72.6600 47° Northeast 337 388 17,900 -1,140 Descending Boston Center
04:04PM 42.6169 -72.5642 48° Northeast 337 388 16,800 -1,380 Descending Boston Center
04:05PM 42.6775 -72.4739 48° Northeast 337 388 15,200 -1,500 Descending Boston Center
04:06PM 42.7381 -72.3778 49° Northeast 331 381 13,900 -1,260 Descending Boston Center
04:07PM 42.7922 -72.2844 52° Northeast 326 375 12,700 -1,200 Descending Boston Center
04:08PM 42.8044 -72.1683 82° East 296 341 11,600 -780 Descending Boston Center
04:09PM 42.8397 -72.0833 60° Northeast 291 335 11,200 -480 Descending Boston Center
04:10PM 42.8892 -71.9839 56° Northeast 286 329 10,600 -660 Descending Boston Center
04:11PM 42.9492 -71.8756 53° Northeast 292 336 9,800 -1,140 Descending Boston Center
04:12PM 42.9906 -71.7986 54° Northeast 287 330 8,400 -1,560 Descending Boston Center
04:13PM 43.0147 -71.6906 73° East 263 303 6,700 -1,740 Descending Boston Center
04:14PM 43.0331 -71.6022 74° East 257 296 5,000 -2,220 Descending Boston Center
04:15PM 43.0281 -71.5056 94° East 239 275 2,300 -1,800 Descending Boston Center
04:16PM 42.9944 -71.4722 144° Southeast 179 206 1,400 -900 Descending Boston Center